Time;durP1;ratioP1;P1;durP2;ratioP2;P2;SDS_P1;SDS_P2;PMS_P1;PMS_P2;Temp;Humidity;BMP_temperature;BMP_pressure;BME280_temperature;BME280_humidity;BME280_pressure;Samples;Min_cycle;Max_cycle;Signal;HPM_P1;HPM_P2
2022/04/18 00:01:47;;;;;;;;;;;17.80;58.60;;;;;;5023147;28;20720;-54
2022/04/18 00:04:12;;;;;;;;;;;17.70;57.90;;;;;;5023240;28;19966;-54
2022/04/18 00:06:38;;;;;;;;;;;17.70;57.90;;;;;;5022236;28;19913;-57
2022/04/18 00:09:03;;;;;;;;;;;17.70;57.90;;;;;;5021968;28;19924;-57
2022/04/18 00:11:29;;;;;;;;;;;17.70;57.90;;;;;;5022506;28;20489;-55
2022/04/18 00:13:54;;;;;;;;;;;17.70;57.90;;;;;;5022518;28;20293;-54
2022/04/18 00:16:20;;;;;;;;;;;17.70;57.90;;;;;;5023370;28;19921;-55
2022/04/18 00:18:45;;;;;;;;;;;17.70;57.90;;;;;;5021327;28;20509;-55
2022/04/18 00:21:11;;;;;;;;;;;17.70;57.90;;;;;;5021639;28;19924;-57
2022/04/18 00:23:36;;;;;;;;;;;17.70;57.90;;;;;;5023047;28;20368;-56
2022/04/18 00:26:02;;;;;;;;;;;17.70;57.80;;;;;;5021947;28;19917;-57
2022/04/18 00:28:27;;;;;;;;;;;17.70;57.80;;;;;;5022426;28;19923;-54
2022/04/18 00:30:53;;;;;;;;;;;17.70;57.80;;;;;;5022319;28;21390;-57
2022/04/18 00:33:18;;;;;;;;;;;17.70;57.80;;;;;;5022930;28;19921;-54
2022/04/18 00:35:44;;;;;;;;;;;17.70;57.80;;;;;;5022669;28;19967;-56
2022/04/18 00:38:09;;;;;;;;;;;17.70;57.90;;;;;;5022764;28;20310;-56
2022/04/18 00:40:35;;;;;;;;;;;17.70;57.80;;;;;;5021164;28;19920;-56
2022/04/18 00:43:01;;;;;;;;;;;17.70;57.80;;;;;;5021480;28;20348;-56
2022/04/18 00:45:26;;;;;;;;;;;17.70;57.80;;;;;;5021604;28;19917;-56
2022/04/18 00:47:52;;;;;;;;;;;17.70;57.80;;;;;;5021175;28;19913;-55
2022/04/18 00:50:17;;;;;;;;;;;17.70;57.70;;;;;;5020571;28;19925;-57
2022/04/18 00:52:43;;;;;;;;;;;17.70;57.70;;;;;;5022386;28;19917;-57
2022/04/18 00:55:08;;;;;;;;;;;17.70;57.70;;;;;;5020772;28;19924;-56
2022/04/18 00:57:34;;;;;;;;;;;17.70;57.70;;;;;;5019414;28;20389;-57
2022/04/18 00:59:59;;;;;;;;;;;17.70;57.70;;;;;;5021326;28;19956;-57
2022/04/18 01:02:24;;;;;;;;;;;17.70;57.70;;;;;;5022856;28;20515;-56
2022/04/18 01:04:51;;;;;;;;;;;17.70;57.70;;;;;;5022499;28;19936;-55
2022/04/18 01:07:17;;;;;;;;;;;17.70;57.70;;;;;;5021788;28;19919;-56
2022/04/18 01:09:42;;;;;;;;;;;17.60;57.60;;;;;;5020800;28;19917;-56
2022/04/18 01:12:07;;;;;;;;;;;17.60;57.60;;;;;;5021108;28;19920;-57
2022/04/18 01:14:33;;;;;;;;;;;17.70;57.70;;;;;;5022418;28;19921;-55
2022/04/18 01:16:58;;;;;;;;;;;17.70;57.70;;;;;;5022161;28;20649;-57
2022/04/18 01:19:24;;;;;;;;;;;17.70;57.70;;;;;;5020423;28;19924;-56
2022/04/18 01:21:49;;;;;;;;;;;17.70;57.60;;;;;;5022276;28;19917;-57
2022/04/18 01:29:43;;;;;;;;;;;17.60;57.50;;;;;;5020426;28;19923;-56
2022/04/18 01:32:08;;;;;;;;;;;17.60;57.60;;;;;;5025166;28;20018;-56
2022/04/18 01:34:34;;;;;;;;;;;17.60;57.50;;;;;;5025097;28;19921;-57
2022/04/18 01:36:59;;;;;;;;;;;17.60;57.50;;;;;;5025188;28;19967;-56
2022/04/18 01:39:25;;;;;;;;;;;17.60;57.50;;;;;;5024452;28;19917;-56
2022/04/18 01:41:50;;;;;;;;;;;17.60;57.50;;;;;;5027356;28;19917;-57
2022/04/18 01:44:16;;;;;;;;;;;17.60;57.50;;;;;;5025592;28;19913;-56
2022/04/18 01:46:41;;;;;;;;;;;17.60;57.50;;;;;;5025853;28;19920;-56
2022/04/18 01:49:07;;;;;;;;;;;17.60;57.50;;;;;;5023727;28;20485;-57
2022/04/18 01:51:32;;;;;;;;;;;17.60;57.50;;;;;;5026183;28;19916;-57
2022/04/18 01:53:58;;;;;;;;;;;17.60;57.50;;;;;;5025292;28;19928;-54
2022/04/18 01:56:23;;;;;;;;;;;17.60;57.50;;;;;;5025444;28;20350;-57
2022/04/18 01:58:49;;;;;;;;;;;17.60;57.50;;;;;;5023036;28;20444;-56
2022/04/18 02:01:15;;;;;;;;;;;17.60;57.50;;;;;;5025277;28;19917;-57
2022/04/18 02:03:43;;;;;;;;;;;17.60;57.40;;;;;;5025401;28;19917;-56
2022/04/18 02:06:08;;;;;;;;;;;17.60;57.40;;;;;;5025286;28;20006;-58
2022/04/18 02:08:35;;;;;;;;;;;17.60;57.40;;;;;;5022314;28;19944;-58
2022/04/18 02:11:00;;;;;;;;;;;17.60;57.50;;;;;;5024027;28;19921;-55
2022/04/18 02:13:28;;;;;;;;;;;17.60;57.50;;;;;;5024457;28;19944;-55
2022/04/18 02:15:55;;;;;;;;;;;17.60;57.40;;;;;;5025416;28;19972;-57
2022/04/18 02:18:21;;;;;;;;;;;17.60;57.40;;;;;;5024573;28;19913;-56
2022/04/18 02:20:46;;;;;;;;;;;17.60;57.50;;;;;;5024311;28;20283;-57
2022/04/18 02:23:11;;;;;;;;;;;17.50;57.30;;;;;;5023794;28;19917;-54
2022/04/18 02:25:37;;;;;;;;;;;17.60;57.40;;;;;;5024955;28;19913;-55
2022/04/18 02:28:02;;;;;;;;;;;17.60;57.40;;;;;;5024815;28;20294;-56
2022/04/18 02:30:28;;;;;;;;;;;17.60;57.40;;;;;;5021759;28;19967;-56
2022/04/18 02:32:53;;;;;;;;;;;17.60;57.40;;;;;;5023481;28;20263;-57
2022/04/18 02:35:20;;;;;;;;;;;17.50;57.30;;;;;;5023907;28;19987;-57
2022/04/18 02:37:45;;;;;;;;;;;17.60;57.40;;;;;;5023278;28;20441;-57
2022/04/18 02:40:11;;;;;;;;;;;17.60;57.30;;;;;;5022685;28;19917;-57
2022/04/18 02:42:37;;;;;;;;;;;17.60;57.40;;;;;;5023509;28;19917;-56
2022/04/18 02:45:02;;;;;;;;;;;17.60;57.30;;;;;;5024832;28;20007;-56
2022/04/18 02:47:28;;;;;;;;;;;17.60;57.40;;;;;;5023162;28;19982;-55
2022/04/18 02:49:53;;;;;;;;;;;17.50;57.30;;;;;;5022161;28;19913;-57
2022/04/18 02:52:19;;;;;;;;;;;17.50;57.30;;;;;;5023438;28;19914;-57
2022/04/18 02:54:44;;;;;;;;;;;17.50;57.30;;;;;;5024432;28;19921;-58
2022/04/18 02:57:11;;;;;;;;;;;17.60;57.30;;;;;;5024256;28;20531;-57
2022/04/18 02:59:37;;;;;;;;;;;17.60;57.30;;;;;;5005684;28;19917;-58
2022/04/18 03:02:02;;;;;;;;;;;17.50;57.30;;;;;;5023014;28;20290;-56
2022/04/18 03:04:28;;;;;;;;;;;17.50;57.30;;;;;;5023178;28;19994;-55
2022/04/18 03:06:53;;;;;;;;;;;17.50;57.20;;;;;;5021846;28;19913;-58
2022/04/18 03:09:19;;;;;;;;;;;17.50;57.20;;;;;;5023029;28;19975;-57
2022/04/18 03:11:44;;;;;;;;;;;17.50;57.20;;;;;;5022885;28;19957;-57
2022/04/18 03:14:10;;;;;;;;;;;17.50;57.20;;;;;;5023762;28;19937;-57
2022/04/18 03:16:35;;;;;;;;;;;17.50;57.20;;;;;;5023801;28;19919;-56
2022/04/18 03:19:01;;;;;;;;;;;17.50;57.20;;;;;;5022460;28;20446;-56
2022/04/18 03:21:26;;;;;;;;;;;17.50;57.20;;;;;;5023324;28;19921;-58
2022/04/18 03:23:52;;;;;;;;;;;17.50;57.20;;;;;;5021081;28;19920;-57
2022/04/18 03:26:18;;;;;;;;;;;17.50;57.20;;;;;;5023707;28;19940;-58
2022/04/18 03:28:43;;;;;;;;;;;17.50;57.10;;;;;;5021855;28;19917;-57
2022/04/18 03:31:09;;;;;;;;;;;17.50;57.20;;;;;;5022435;28;20293;-56
2022/04/18 03:33:34;;;;;;;;;;;17.50;57.10;;;;;;5022737;28;19925;-57
2022/04/18 03:41:28;;;;;;;;;;;17.50;57.10;;;;;;5023435;28;19986;-57
2022/04/18 03:43:53;;;;;;;;;;;17.50;57.10;;;;;;5023215;28;19921;-58
2022/04/18 03:46:19;;;;;;;;;;;17.50;57.10;;;;;;5023385;28;19921;-56
2022/04/18 03:48:44;;;;;;;;;;;17.40;57.10;;;;;;5020815;28;20428;-56
2022/04/18 03:51:10;;;;;;;;;;;17.50;57.10;;;;;;5021513;28;20008;-57
2022/04/18 03:53:35;;;;;;;;;;;17.50;57.10;;;;;;5022985;28;20344;-57
2022/04/18 03:56:01;;;;;;;;;;;17.50;57.10;;;;;;5023556;28;19913;-57
2022/04/18 03:58:26;;;;;;;;;;;17.50;57.10;;;;;;5022605;28;19913;-53
2022/04/18 04:00:51;;;;;;;;;;;17.50;57.10;;;;;;5023502;28;19920;-57
2022/04/18 04:03:17;;;;;;;;;;;17.50;57.10;;;;;;5022108;28;20329;-57
2022/04/18 04:05:42;;;;;;;;;;;17.50;57.10;;;;;;5020745;28;19917;-57
2022/04/18 04:08:08;;;;;;;;;;;17.40;57.00;;;;;;5022298;28;19917;-55
2022/04/18 04:10:33;;;;;;;;;;;17.40;57.00;;;;;;5022026;28;19914;-57
2022/04/18 04:12:59;;;;;;;;;;;17.50;57.10;;;;;;5022061;28;20445;-58
2022/04/18 04:15:24;;;;;;;;;;;17.40;57.00;;;;;;5021578;28;20367;-56
2022/04/18 04:17:50;;;;;;;;;;;17.40;57.00;;;;;;5021747;28;19921;-57
2022/04/18 04:20:15;;;;;;;;;;;17.40;57.00;;;;;;5019970;28;20695;-54
2022/04/18 04:22:44;;;;;;;;;;;17.40;57.00;;;;;;5022030;28;19917;-57
2022/04/18 04:25:09;;;;;;;;;;;17.40;57.00;;;;;;5022947;28;19924;-56
2022/04/18 04:27:35;;;;;;;;;;;17.40;57.00;;;;;;5023132;28;19917;-56
2022/04/18 04:30:00;;;;;;;;;;;17.40;57.00;;;;;;5021942;28;19913;-58
2022/04/18 04:32:26;;;;;;;;;;;17.40;57.00;;;;;;5022563;28;20314;-57
2022/04/18 04:34:51;;;;;;;;;;;17.40;56.90;;;;;;5035473;22;19905;-56
2022/04/18 04:37:17;;;;;;;;;;;17.40;56.90;;;;;;5026553;28;19935;-56
2022/04/18 04:39:42;;;;;;;;;;;17.40;56.90;;;;;;5021689;28;19914;-52
2022/04/18 04:42:07;;;;;;;;;;;17.40;56.90;;;;;;5022189;28;19920;-55
2022/04/18 04:44:33;;;;;;;;;;;17.40;57.50;;;;;;5011250;28;19914;-55
2022/04/18 04:46:59;;;;;;;;;;;17.50;56.90;;;;;;5022209;28;19967;-54
2022/04/18 04:49:24;;;;;;;;;;;17.40;56.80;;;;;;5017216;28;20024;-56
2022/04/18 04:51:50;;;;;;;;;;;17.50;56.80;;;;;;5021495;28;21253;-55
2022/04/18 04:54:15;;;;;;;;;;;17.40;56.70;;;;;;5022597;28;19925;-55
2022/04/18 04:56:40;;;;;;;;;;;17.50;56.70;;;;;;5021978;28;20037;-57
2022/04/18 04:59:06;;;;;;;;;;;17.50;56.70;;;;;;5021183;28;20398;-56
2022/04/18 05:01:33;;;;;;;;;;;17.50;56.70;;;;;;5021607;28;19928;-53
2022/04/18 05:03:58;;;;;;;;;;;17.50;56.80;;;;;;5022520;28;19917;-53
2022/04/18 05:06:24;;;;;;;;;;;17.50;56.70;;;;;;5041074;28;19913;-57
2022/04/18 05:08:49;;;;;;;;;;;17.50;56.70;;;;;;5024635;28;20405;-55
2022/04/18 05:11:15;;;;;;;;;;;17.50;56.70;;;;;;5026667;28;19991;-54
2022/04/18 05:13:40;;;;;;;;;;;17.60;56.70;;;;;;5025141;28;19928;-55
2022/04/18 05:16:06;;;;;;;;;;;17.50;56.70;;;;;;5025795;28;19917;-57
2022/04/18 05:18:31;;;;;;;;;;;17.50;56.70;;;;;;5023589;28;20333;-57
2022/04/18 05:20:57;;;;;;;;;;;17.60;56.70;;;;;;5026993;28;19919;-57
2022/04/18 05:23:22;;;;;;;;;;;17.60;56.70;;;;;;5026181;28;19917;-57
2022/04/18 05:25:48;;;;;;;;;;;17.60;56.60;;;;;;5026238;28;19917;-56
2022/04/18 05:28:13;;;;;;;;;;;17.50;56.60;;;;;;5024887;28;19914;-56
2022/04/18 05:30:39;;;;;;;;;;;17.60;56.70;;;;;;5024299;28;19917;-54
2022/04/18 05:33:05;;;;;;;;;;;17.60;56.60;;;;;;5026040;28;19924;-55
2022/04/18 05:35:31;;;;;;;;;;;17.60;56.60;;;;;;5023904;28;19927;-61
2022/04/18 05:37:56;;;;;;;;;;;17.60;56.70;;;;;;5041339;28;19914;-57
2022/04/18 05:40:22;;;;;;;;;;;17.60;56.70;;;;;;5024624;28;19971;-55
2022/04/18 05:42:47;;;;;;;;;;;17.60;56.80;;;;;;5025957;28;20282;-57
2022/04/18 05:45:13;;;;;;;;;;;17.70;56.90;;;;;;5024925;28;19913;-57
2022/04/18 05:47:38;;;;;;;;;;;17.70;57.00;;;;;;5025346;28;20404;-55
2022/04/18 05:50:04;;;;;;;;;;;17.70;57.40;;;;;;5024500;28;19917;-54
2022/04/18 05:52:29;;;;;;;;;;;17.70;57.40;;;;;;5024874;28;19913;-58
2022/04/18 05:54:55;;;;;;;;;;;17.60;57.50;;;;;;5025623;28;19932;-58
2022/04/18 05:57:23;;;;;;;;;;;17.70;57.60;;;;;;5025663;28;21298;-56
2022/04/18 05:59:48;;;;;;;;;;;17.60;57.70;;;;;;5023056;28;19913;-56
2022/04/18 06:02:15;;;;;;;;;;;17.70;57.90;;;;;;5024024;28;19943;-57
2022/04/18 06:04:40;;;;;;;;;;;17.70;57.70;;;;;;5023701;28;19925;-56
2022/04/18 06:07:05;;;;;;;;;;;17.70;57.90;;;;;;5025598;28;19913;-55
2022/04/18 06:09:31;;;;;;;;;;;17.70;58.00;;;;;;5024987;28;19944;-59
2022/04/18 06:11:56;;;;;;;;;;;17.70;58.10;;;;;;5025617;28;20310;-56
2022/04/18 06:14:22;;;;;;;;;;;17.70;58.00;;;;;;5023600;28;20012;-52
2022/04/18 06:16:47;;;;;;;;;;;17.70;58.60;;;;;;5025193;28;19921;-56
2022/04/18 06:19:13;;;;;;;;;;;17.70;58.10;;;;;;5024439;28;20239;-53
2022/04/18 06:21:38;;;;;;;;;;;17.70;58.10;;;;;;5025746;28;20544;-55
2022/04/18 06:24:04;;;;;;;;;;;17.70;58.00;;;;;;5026178;28;19917;-55
2022/04/18 06:26:29;;;;;;;;;;;17.70;58.10;;;;;;5026473;28;19917;-56
2022/04/18 06:28:57;;;;;;;;;;;17.70;58.00;;;;;;5022054;28;19924;-57
2022/04/18 06:31:22;;;;;;;;;;;17.60;57.90;;;;;;5024411;28;19917;-56
2022/04/18 06:33:48;;;;;;;;;;;17.70;57.90;;;;;;5040344;28;20385;-57
2022/04/18 06:36:13;;;;;;;;;;;17.70;57.90;;;;;;5024821;28;20382;-57
2022/04/18 06:38:39;;;;;;;;;;;17.70;57.70;;;;;;5023065;28;19952;-55
2022/04/18 06:41:04;;;;;;;;;;;17.70;57.50;;;;;;5024288;28;19913;-55
2022/04/18 06:43:30;;;;;;;;;;;17.70;57.50;;;;;;5024293;28;19913;-55
2022/04/18 06:45:55;;;;;;;;;;;17.70;57.60;;;;;;5023660;28;19917;-56
2022/04/18 06:48:22;;;;;;;;;;;17.70;57.60;;;;;;5019978;28;19917;-55
2022/04/18 06:50:48;;;;;;;;;;;17.60;57.50;;;;;;5022688;28;19917;-55
2022/04/18 06:53:13;;;;;;;;;;;17.70;57.70;;;;;;5024682;28;19924;-57
2022/04/18 06:58:23;;;;;;;;;;;17.70;57.60;;;;;;5023748;28;19979;-56
2022/04/18 07:00:49;;;;;;;;;;;17.60;57.60;;;;;;5022221;28;19917;-57
2022/04/18 07:03:14;;;;;;;;;;;17.60;57.60;;;;;;5023957;28;19914;-55
2022/04/18 07:05:41;;;;;;;;;;;17.60;57.70;;;;;;5023008;28;20305;-56
2022/04/18 07:08:06;;;;;;;;;;;17.60;57.60;;;;;;5023032;28;19917;-56
2022/04/18 07:10:32;;;;;;;;;;;17.60;57.70;;;;;;5022936;28;20302;-55
2022/04/18 07:12:57;;;;;;;;;;;17.60;57.70;;;;;;5023645;28;19917;-55
2022/04/18 07:15:22;;;;;;;;;;;17.60;57.60;;;;;;5039333;28;19921;-57
2022/04/18 07:17:48;;;;;;;;;;;17.60;57.70;;;;;;5023955;28;20390;-56
2022/04/18 07:20:13;;;;;;;;;;;17.60;57.70;;;;;;5022171;28;19983;-57
2022/04/18 07:22:39;;;;;;;;;;;17.60;57.70;;;;;;5023608;28;19923;-56
2022/04/18 07:25:05;;;;;;;;;;;17.60;57.70;;;;;;5023188;28;19921;-55
2022/04/18 07:27:31;;;;;;;;;;;17.60;57.70;;;;;;5022337;28;19917;-55
2022/04/18 07:29:56;;;;;;;;;;;17.60;57.70;;;;;;5022421;28;19921;-56
2022/04/18 07:32:22;;;;;;;;;;;17.60;57.70;;;;;;5020819;28;20642;-56
2022/04/18 07:34:47;;;;;;;;;;;17.60;57.70;;;;;;5021997;28;19947;-56
2022/04/18 07:37:13;;;;;;;;;;;17.60;57.80;;;;;;5022987;28;20634;-56
2022/04/18 07:39:38;;;;;;;;;;;17.60;57.80;;;;;;5022146;28;19913;-57
2022/04/18 07:42:04;;;;;;;;;;;17.60;57.80;;;;;;5023154;28;20019;-56
2022/04/18 07:44:29;;;;;;;;;;;17.60;57.90;;;;;;5023670;28;19976;-53
2022/04/18 07:46:55;;;;;;;;;;;17.50;57.70;;;;;;5023516;28;19917;-54
2022/04/18 07:49:20;;;;;;;;;;;17.50;57.70;;;;;;5037561;28;19913;-56
2022/04/18 07:51:46;;;;;;;;;;;17.60;57.80;;;;;;5021869;28;19920;-55
2022/04/18 07:54:14;;;;;;;;;;;17.60;57.80;;;;;;5023587;28;19925;-54
2022/04/18 07:56:40;;;;;;;;;;;17.60;57.90;;;;;;5021993;28;20176;-55
2022/04/18 07:59:05;;;;;;;;;;;17.60;57.90;;;;;;5022255;28;19917;-52
2022/04/18 08:01:31;;;;;;;;;;;17.60;57.80;;;;;;5023586;28;19924;-55
2022/04/18 08:03:57;;;;;;;;;;;17.60;57.80;;;;;;5022848;28;19923;-56
2022/04/18 08:06:22;;;;;;;;;;;17.60;57.90;;;;;;5022386;28;19936;-56
2022/04/18 08:08:48;;;;;;;;;;;17.60;57.90;;;;;;5022255;28;20344;-55
2022/04/18 08:11:15;;;;;;;;;;;17.50;57.80;;;;;;5022469;28;19917;-56
2022/04/18 08:13:41;;;;;;;;;;;17.60;57.90;;;;;;5023215;28;19917;-54
2022/04/18 08:16:07;;;;;;;;;;;17.50;57.80;;;;;;5022144;28;19933;-55
2022/04/18 08:18:36;;;;;;;;;;;17.50;57.80;;;;;;5022066;28;19924;-57
2022/04/18 08:21:02;;;;;;;;;;;17.60;57.90;;;;;;5022806;28;20003;-54
2022/04/18 08:23:27;;;;;;;;;;;17.60;57.80;;;;;;5021844;28;20059;-57
2022/04/18 08:25:52;;;;;;;;;;;17.60;57.90;;;;;;5021030;28;20173;-52
2022/04/18 08:28:18;;;;;;;;;;;17.60;57.90;;;;;;5022209;28;19965;-56
2022/04/18 08:30:43;;;;;;;;;;;17.50;57.80;;;;;;5021029;28;19920;-57
2022/04/18 08:33:09;;;;;;;;;;;17.60;57.90;;;;;;5021577;28;20640;-56
2022/04/18 08:35:34;;;;;;;;;;;17.50;57.80;;;;;;5020496;28;19927;-61
2022/04/18 08:38:00;;;;;;;;;;;17.50;57.90;;;;;;5022816;28;19924;-57
2022/04/18 08:40:25;;;;;;;;;;;17.50;57.80;;;;;;5019448;28;19913;-53
2022/04/18 08:42:53;;;;;;;;;;;17.50;57.80;;;;;;5022055;28;20004;-54
2022/04/18 08:45:22;;;;;;;;;;;17.50;57.80;;;;;;5020254;28;20382;-54
2022/04/18 08:53:33;;;;;;;;;;;17.50;57.80;;;;;;5017428;28;20428;-54
2022/04/18 08:55:59;;;;;;;;;;;17.50;57.80;;;;;;5020568;28;19917;-56
2022/04/18 08:58:26;;;;;;;;;;;17.50;57.70;;;;;;5019683;28;19921;-54
2022/04/18 09:00:52;;;;;;;;;;;17.50;57.70;;;;;;5020468;28;19994;-56
2022/04/18 09:03:17;;;;;;;;;;;17.50;57.70;;;;;;5035545;28;19951;-56
2022/04/18 09:05:43;;;;;;;;;;;17.50;57.80;;;;;;5019651;28;19924;-56
2022/04/18 09:08:08;;;;;;;;;;;17.50;57.70;;;;;;5020467;28;19913;-53
2022/04/18 09:10:34;;;;;;;;;;;17.50;57.80;;;;;;5021816;28;19914;-56
2022/04/18 09:13:06;;;;;;;;;;;17.50;57.90;;;;;;5037536;28;20313;-57
2022/04/18 09:15:41;;;;;;;;;;;17.50;57.80;;;;;;5022199;28;19928;-56
2022/04/18 09:18:19;;;;;;;;;;;17.50;57.90;;;;;;5021582;28;20595;-56
2022/04/18 09:20:45;;;;;;;;;;;17.50;57.90;;;;;;5020617;28;19917;-57
2022/04/18 09:23:18;;;;;;;;;;;17.50;57.90;;;;;;5021136;28;20000;-56
2022/04/18 09:25:43;;;;;;;;;;;17.50;57.90;;;;;;5020276;28;20370;-57
2022/04/18 09:28:09;;;;;;;;;;;17.50;58.00;;;;;;5020927;28;19919;-57
2022/04/18 09:30:35;;;;;;;;;;;17.50;58.10;;;;;;5019630;28;20000;-60
2022/04/18 09:33:05;;;;;;;;;;;17.50;58.10;;;;;;5022015;28;19923;-57
2022/04/18 09:35:31;;;;;;;;;;;17.50;58.10;;;;;;5001731;28;19921;-56
2022/04/18 09:38:00;;;;;;;;;;;17.50;58.00;;;;;;4998832;28;20004;-54
2022/04/18 09:40:26;;;;;;;;;;;17.50;58.10;;;;;;5019074;28;20441;-56
2022/04/18 09:42:52;;;;;;;;;;;17.50;58.00;;;;;;5020627;28;19917;-56
2022/04/18 09:45:18;;;;;;;;;;;17.50;57.90;;;;;;5019699;28;20453;-56
2022/04/18 09:47:43;;;;;;;;;;;17.50;57.90;;;;;;5022322;28;20000;-54
2022/04/18 09:50:58;;;;;;;;;;;17.50;57.90;;;;;;5020899;28;20659;-56
2022/04/18 09:53:00;;;;;;;;;;;17.50;57.90;;;;;;5034943;28;20030;-54
2022/04/18 09:55:26;;;;;;;;;;;17.50;57.90;;;;;;5027427;28;20437;-56
2022/04/18 09:57:51;;;;;;;;;;;17.50;57.90;;;;;;5025801;28;19951;-57
2022/04/18 10:00:17;;;;;;;;;;;17.50;57.90;;;;;;5024654;28;19976;-55
2022/04/18 10:02:42;;;;;;;;;;;17.50;57.90;;;;;;5038662;28;19921;-55
2022/04/18 10:05:08;;;;;;;;;;;17.50;58.00;;;;;;5058236;28;20375;-55
2022/04/18 10:07:33;;;;;;;;;;;17.50;58.00;;;;;;5023921;28;19924;-56
2022/04/18 10:09:58;;;;;;;;;;;17.50;57.90;;;;;;5041275;28;19928;-54
2022/04/18 10:12:24;;;;;;;;;;;17.50;58.00;;;;;;5039050;28;20389;-52
2022/04/18 10:14:49;;;;;;;;;;;17.50;58.00;;;;;;5024340;28;19917;-56
2022/04/18 10:17:16;;;;;;;;;;;17.50;57.90;;;;;;5024396;28;19917;-54
2022/04/18 10:19:47;;;;;;;;;;;17.50;57.90;;;;;;5025209;28;19982;-56
2022/04/18 10:22:28;;;;;;;;;;;17.50;58.60;;;;;;5036328;28;19921;-57
2022/04/18 10:25:12;;;;;;;;;;;17.50;57.90;;;;;;5035551;28;19917;-55
2022/04/18 10:27:48;;;;;;;;;;;17.50;57.90;;;;;;5024845;28;20382;-55
2022/04/18 10:30:14;;;;;;;;;;;17.50;57.90;;;;;;5023314;28;20000;-55
2022/04/18 10:32:39;;;;;;;;;;;17.50;57.90;;;;;;5024972;28;19917;-57
2022/04/18 10:35:05;;;;;;;;;;;17.50;57.90;;;;;;5028505;28;19924;-56
2022/04/18 10:37:31;;;;;;;;;;;17.50;57.90;;;;;;5036295;28;19925;-53
2022/04/18 10:39:57;;;;;;;;;;;17.50;57.90;;;;;;5024272;28;19917;-57
2022/04/18 10:42:24;;;;;;;;;;;17.50;57.90;;;;;;5023558;28;19914;-56
2022/04/18 10:45:11;;;;;;;;;;;17.50;57.90;;;;;;5021487;28;19918;-56
2022/04/18 10:47:55;;;;;;;;;;;17.50;57.90;;;;;;5016206;28;19918;-55
2022/04/18 10:50:21;;;;;;;;;;;17.50;57.90;;;;;;5028292;28;20054;-55
2022/04/18 10:53:05;;;;;;;;;;;17.50;57.90;;;;;;5043564;28;20410;-56
2022/04/18 10:55:31;;;;;;;;;;;17.50;57.90;;;;;;5033995;28;19921;-54
2022/04/18 10:58:13;;;;;;;;;;;17.50;57.90;;;;;;5023591;28;19925;-54
2022/04/18 11:00:48;;;;;;;;;;;17.50;57.90;;;;;;5023633;28;20016;-56
2022/04/18 11:03:14;;;;;;;;;;;17.50;57.90;;;;;;5042112;28;19920;-56
2022/04/18 11:05:40;;;;;;;;;;;17.50;57.90;;;;;;5032397;28;19913;-54
2022/04/18 11:08:24;;;;;;;;;;;17.50;57.90;;;;;;5024608;28;19917;-52
2022/04/18 11:10:49;;;;;;;;;;;17.50;57.80;;;;;;5024032;28;20282;-57
2022/04/18 11:13:14;;;;;;;;;;;17.50;57.80;;;;;;5023543;28;19917;-53
2022/04/18 11:15:40;;;;;;;;;;;17.50;57.90;;;;;;5024439;28;20046;-57
2022/04/18 11:18:08;;;;;;;;;;;17.50;57.80;;;;;;5038542;28;19959;-55
2022/04/18 11:20:35;;;;;;;;;;;17.50;57.90;;;;;;5021246;28;19920;-56
2022/04/18 11:23:19;;;;;;;;;;;17.50;57.90;;;;;;5022410;28;19951;-57
2022/04/18 11:25:50;;;;;;;;;;;17.50;58.00;;;;;;5023868;28;19913;-57
2022/04/18 11:28:16;;;;;;;;;;;17.50;58.00;;;;;;5023603;28;19959;-52
2022/04/18 11:30:41;;;;;;;;;;;17.50;58.10;;;;;;5022319;28;19917;-57
2022/04/18 11:33:06;;;;;;;;;;;17.50;58.10;;;;;;5022948;28;19971;-55
2022/04/18 11:35:33;;;;;;;;;;;17.50;58.10;;;;;;5024228;28;19936;-54
2022/04/18 11:37:58;;;;;;;;;;;17.50;58.20;;;;;;5038812;28;19918;-56
2022/04/18 11:40:24;;;;;;;;;;;17.50;58.20;;;;;;5037404;28;20656;-55
2022/04/18 11:42:49;;;;;;;;;;;17.50;58.30;;;;;;5023216;28;19913;-54
2022/04/18 11:45:25;;;;;;;;;;;17.50;58.20;;;;;;5023610;28;19917;-57
2022/04/18 11:47:50;;;;;;;;;;;17.50;58.40;;;;;;5021560;28;19996;-53
2022/04/18 11:50:21;;;;;;;;;;;17.50;58.20;;;;;;5037653;28;20050;-54
2022/04/18 11:52:48;;;;;;;;;;;17.50;58.20;;;;;;4994447;28;21940;-55
2022/04/18 11:55:15;;;;;;;;;;;17.50;58.20;;;;;;5013394;28;19972;-56
2022/04/18 11:57:44;;;;;;;;;;;17.50;58.10;;;;;;5020707;28;19984;-57
2022/04/18 12:00:10;;;;;;;;;;;17.50;58.30;;;;;;5021993;28;20525;-54
2022/04/18 12:08:05;;;;;;;;;;;17.50;58.20;;;;;;5002722;28;19948;-55
2022/04/18 12:10:31;;;;;;;;;;;17.50;58.20;;;;;;5034871;28;19982;-55
2022/04/18 12:12:57;;;;;;;;;;;17.60;58.20;;;;;;5019120;28;20474;-53
2022/04/18 12:15:23;;;;;;;;;;;17.60;58.20;;;;;;5019042;28;20028;-56
2022/04/18 12:17:49;;;;;;;;;;;17.60;58.10;;;;;;5020154;28;19975;-56
2022/04/18 12:20:18;;;;;;;;;;;17.60;58.10;;;;;;5021700;28;19913;-57
2022/04/18 12:22:47;;;;;;;;;;;17.50;58.10;;;;;;5020625;28;19967;-53
2022/04/18 12:25:22;;;;;;;;;;;17.60;58.00;;;;;;5025099;28;20382;-55
2022/04/18 12:27:48;;;;;;;;;;;17.60;58.00;;;;;;5041402;28;19920;-57
2022/04/18 12:30:13;;;;;;;;;;;17.50;58.00;;;;;;5024923;28;19921;-56
2022/04/18 12:32:39;;;;;;;;;;;17.60;58.00;;;;;;5028687;28;20602;-55
2022/04/18 12:35:05;;;;;;;;;;;17.60;58.00;;;;;;5041045;28;20368;-55
2022/04/18 12:37:30;;;;;;;;;;;17.50;57.90;;;;;;5029368;28;20020;-55
2022/04/18 12:40:15;;;;;;;;;;;17.60;58.10;;;;;;5020573;28;20302;-58
2022/04/18 12:42:47;;;;;;;;;;;17.60;58.10;;;;;;5043653;28;19920;-57
2022/04/18 12:45:12;;;;;;;;;;;17.60;58.10;;;;;;5032969;28;20313;-57
2022/04/18 12:47:38;;;;;;;;;;;17.60;58.20;;;;;;5028204;28;19917;-57
2022/04/18 12:50:07;;;;;;;;;;;17.50;58.10;;;;;;5004764;28;20294;-57
2022/04/18 12:52:33;;;;;;;;;;;17.60;58.20;;;;;;5019866;28;19923;-56
2022/04/18 12:55:03;;;;;;;;;;;17.50;58.10;;;;;;5036296;28;19917;-56
2022/04/18 12:57:32;;;;;;;;;;;17.50;58.10;;;;;;5021359;28;19921;-55
2022/04/18 13:00:14;;;;;;;;;;;17.50;58.10;;;;;;5016133;28;20008;-56
2022/04/18 13:02:40;;;;;;;;;;;17.60;58.20;;;;;;5021342;28;19984;-58
2022/04/18 13:05:06;;;;;;;;;;;17.50;58.10;;;;;;5022491;28;20191;-58
2022/04/18 13:07:37;;;;;;;;;;;17.50;58.10;;;;;;5020910;28;19913;-56
2022/04/18 13:10:02;;;;;;;;;;;17.60;58.20;;;;;;5020081;28;20003;-58
2022/04/18 13:12:29;;;;;;;;;;;17.60;58.20;;;;;;5021776;28;20000;-57
2022/04/18 13:14:59;;;;;;;;;;;17.50;58.20;;;;;;5036515;28;19972;-56
2022/04/18 13:17:24;;;;;;;;;;;17.60;58.20;;;;;;5021737;28;19928;-57
2022/04/18 13:19:49;;;;;;;;;;;17.60;58.20;;;;;;5019301;28;19913;-54
2022/04/18 13:22:15;;;;;;;;;;;17.60;58.30;;;;;;5021498;28;19927;-57
2022/04/18 13:24:40;;;;;;;;;;;17.60;58.30;;;;;;5021438;28;20337;-58
2022/04/18 13:27:06;;;;;;;;;;;17.60;58.20;;;;;;5025639;28;19918;-57
2022/04/18 13:29:32;;;;;;;;;;;17.60;58.40;;;;;;5024680;28;19924;-58
2022/04/18 13:31:58;;;;;;;;;;;17.60;58.40;;;;;;5025813;28;19921;-54
2022/04/18 13:34:23;;;;;;;;;;;17.60;58.30;;;;;;5025010;28;19921;-58
2022/04/18 13:36:49;;;;;;;;;;;17.60;58.30;;;;;;5024485;28;19921;-55
2022/04/18 13:39:15;;;;;;;;;;;17.60;58.30;;;;;;5023466;28;19917;-57
2022/04/18 13:41:41;;;;;;;;;;;17.60;58.40;;;;;;5026070;28;20005;-57
2022/04/18 13:44:06;;;;;;;;;;;17.60;59.00;;;;;;5025784;28;20008;-55
2022/04/18 13:46:32;;;;;;;;;;;17.60;58.40;;;;;;5025640;28;19921;-56
2022/04/18 13:48:57;;;;;;;;;;;17.60;58.40;;;;;;5022810;28;19964;-55
2022/04/18 13:51:23;;;;;;;;;;;17.60;58.40;;;;;;5025908;28;20294;-53
2022/04/18 13:53:49;;;;;;;;;;;17.70;58.40;;;;;;5023275;28;19921;-56
2022/04/18 13:56:15;;;;;;;;;;;17.70;58.40;;;;;;5040889;28;19913;-58
2022/04/18 13:58:40;;;;;;;;;;;17.70;58.30;;;;;;5031644;28;19924;-56
2022/04/18 14:01:06;;;;;;;;;;;17.70;58.30;;;;;;5024715;28;19919;-50
2022/04/18 14:03:31;;;;;;;;;;;17.70;58.20;;;;;;5023980;28;20602;-54
2022/04/18 14:05:57;;;;;;;;;;;17.60;58.10;;;;;;5023722;28;19917;-57
2022/04/18 14:08:23;;;;;;;;;;;17.70;58.10;;;;;;5024136;28;20294;-56
2022/04/18 14:10:48;;;;;;;;;;;17.70;58.40;;;;;;5024838;28;20674;-57
2022/04/18 14:13:14;;;;;;;;;;;17.70;58.00;;;;;;5023455;28;19955;-54
2022/04/18 14:21:07;;;;;;;;;;;17.70;57.90;;;;;;5025350;28;19924;-54
2022/04/18 14:23:33;;;;;;;;;;;17.70;57.80;;;;;;5024327;28;19918;-54
2022/04/18 14:25:58;;;;;;;;;;;17.70;57.70;;;;;;5024885;28;20670;-52
2022/04/18 14:28:24;;;;;;;;;;;17.70;57.70;;;;;;5037722;28;19940;-61
2022/04/18 14:30:49;;;;;;;;;;;17.70;57.60;;;;;;5022909;28;19914;-55
2022/04/18 14:33:15;;;;;;;;;;;17.70;57.50;;;;;;5022304;28;19921;-50
2022/04/18 14:35:41;;;;;;;;;;;17.70;57.50;;;;;;5024569;28;20406;-56
2022/04/18 14:38:06;;;;;;;;;;;17.70;57.40;;;;;;5023483;28;19996;-54
2022/04/18 14:40:32;;;;;;;;;;;17.70;57.40;;;;;;5023194;28;19987;-56
2022/04/18 14:42:57;;;;;;;;;;;17.70;57.30;;;;;;5023884;28;19921;-52